• Join FlightAware (Why Join?)
  • Login
  • US Flag 
01:39AM EDT


 

Airport Tracker/Info


-or-


 

Live Flight TrackerFlight Track Log ✈ UAL4401 ✈ 19-Apr-2013 ✈ KMCI - KIAH

Flight Track Log - Related Links

Times and Time Zones

All times are in EDT time to prevent confusion due to time zone crossing. See the UAL4401 flight status page for this flight to view local times or setup timezone preferences in your user account.

Time Position Orientation Groundspeed Altitude Reporting Facility
EDT Latitude Longitude Course Direction KTS MPH feet Rate Location/Type
09:12AM 39.3000 -94.7333 199° South 159 183 1,600  Level Kansas City TRACON
09:12AM 39.2869 -94.7706 246° West 161 185 3,100 1,800 Climbing Kansas City Center
09:13AM 39.2389 -94.8103 213° Southwest 244 281 5,000 2,460 Climbing Kansas City Center
09:14AM 39.1508 -94.8317 191° South 285 328 8,200 2,760 Climbing Kansas City Center
09:16AM 38.8712 -94.8703 199° South  Level FlightAware Approximate
09:16AM 39.0719 -94.8511 191° South 297 342 10,800  Level Kansas City Center
09:17AM 38.7856 -94.9083 199° South  Level FlightAware Approximate
09:17AM 38.9844 -94.8728 191° South 337 388 11,600  Level Kansas City Center
09:18AM 38.8717 -94.9000 191° South 367 422 13,700 1,920 Climbing Kansas City Center
09:19AM 38.7731 -94.9233 190° South 373 429 15,500 1,680 Climbing Kansas City Center
09:20AM 38.6572 -94.9603 194° South 381 438 17,200 1,500 Climbing Kansas City Center
09:21AM 38.5592 -94.9942 195° South 380 437 18,700 1,380 Climbing Kansas City Center
09:22AM 38.4581 -95.0286 195° South 389 448 20,100 1,500 Climbing Kansas City Center
09:23AM 38.3392 -95.0711 196° South 397 457 21,900 1,800 Climbing Kansas City Center
09:24AM 38.2408 -95.1036 195° South 388 447 23,800 1,980 Climbing Kansas City Center
09:25AM 38.1286 -95.1428 195° South 375 432 26,100 1,680 Climbing Kansas City Center
09:26AM 38.0350 -95.1747 195° South 364 419 27,300 1,620 Climbing Kansas City Center
09:27AM 37.9300 -95.2114 195° South 358 412 29,400 1,740 Climbing Kansas City Center
09:28AM 37.8378 -95.2458 196° South 349 402 30,900 1,380 Climbing Kansas City Center
09:29AM 37.7461 -95.2753 194° South 341 392 32,300 1,200 Climbing Kansas City Center
09:30AM 37.6556 -95.3061 195° South 338 389 33,400 840 Climbing Kansas City Center
09:31AM 37.5628 -95.3358 194° South 341 392 34,100 720 Climbing Kansas City Center
09:32AM 37.4678 -95.3664 194° South 349 402 35,000 900 Climbing Kansas City Center
09:33AM 37.3553 -95.4050 195° South 348 400 36,000 480 Climbing Kansas City Center
09:34AM 37.2600 -95.4364 195° South 352 405 36,000  Level Kansas City Center
09:35AM 37.1589 -95.4697 195° South 367 422 36,000  Level Kansas City Center
09:36AM 37.0536 -95.5050 195° South 384 442 36,000  Level Kansas City Center
09:37AM 36.9442 -95.5406 195° South 400 460 36,000  Level Kansas City Center
09:38AM 36.8336 -95.5783 195° South 409 471 36,000  Level Kansas City Center
09:39AM 36.7203 -95.6156 195° South 417 480 36,000  Level Kansas City Center
09:40AM 36.5925 -95.6572 195° South 427 491 36,000  Level Kansas City Center
09:41AM 36.4772 -95.6961 195° South 428 493 36,000  Level Kansas City Center
09:42AM 36.3631 -95.7331 195° South 426 490 36,000  Level Kansas City Center
09:43AM 36.2436 -95.7725 195° South 423 487 36,000  Level Kansas City Center
09:44AM 36.1314 -95.8103 195° South 421 484 36,000  Level Kansas City Center
09:45AM 36.0189 -95.8500 196° South 420 483 36,000  Level Kansas City Center
09:46AM 35.8847 -95.8969 196° South 417 480 36,000  Level Kansas City Center
09:47AM 35.7722 -95.9367 196° South 418 481 36,000  Level Kansas City Center
09:48AM 35.6603 -95.9750 196° South 418 481 36,000  Level Kansas City Center
09:49AM 35.5653 -96.0075 196° South 415 478 36,000  Level Fort Worth Center
09:50AM 35.4531 -96.0453 195° South 415 478 36,000  Level Fort Worth Center
09:51AM 35.3431 -96.0850 196° South 415 478 36,000  Level Fort Worth Center
09:52AM 35.2328 -96.1225 196° South 415 478 36,000  Level Fort Worth Center
09:53AM 35.1225 -96.1597 195° South 415 478 36,000  Level Fort Worth Center
09:54AM 35.0103 -96.1967 195° South 415 478 36,000  Level Fort Worth Center
09:55AM 34.9003 -96.2364 196° South 415 478 36,000  Level Fort Worth Center
09:56AM 34.7878 -96.2758 196° South 415 478 36,000  Level Fort Worth Center
09:57AM 34.6733 -96.3128 195° South 415 478 36,000  Level Fort Worth Center
09:58AM 34.5633 -96.3519 196° South 415 478 36,000  Level Fort Worth Center
09:59AM 34.4489 -96.3911 196° South 415 478 36,000  Level Fort Worth Center
10:00AM 34.3344 -96.4275 195° South 415 478 36,000  Level Fort Worth Center
10:01AM 34.2219 -96.4667 196° South 415 478 36,000  Level Fort Worth Center
10:02AM 34.1075 -96.5081 197° South 415 478 36,000  Level Fort Worth Center
10:03AM 33.9992 -96.5417 194° South 409 471 36,000  Level Fort Worth Center
10:04AM 33.8867 -96.5828 197° South 414 476 36,000  Level Fort Worth Center
10:05AM 33.7744 -96.6189 195° South 419 482 36,000  Level Fort Worth Center
10:06AM 33.6619 -96.6472 192° South 414 476 36,000  Level Fort Worth Center
10:07AM 33.5575 -96.6433 178° South 414 476 36,000  Level Fort Worth Center
10:08AM 33.4447 -96.6342 176° South 408 470 36,000  Level Fort Worth Center
10:09AM 33.3297 -96.6253 176° South 414 476 36,000  Level Fort Worth Center
10:10AM 33.2192 -96.6214 178° South 407 468 36,000  Level Fort Worth Center
10:11AM 33.0958 -96.6150 178° South 407 468 36,000  Level Fort Worth Center
10:12AM 32.9853 -96.6061 176° South 407 468 36,000  Level Fort Worth Center
10:13AM 32.8975 -96.5994 176° South 407 468 36,000  Level Fort Worth Center
10:14AM 32.7661 -96.5908 177° South 400 460 36,000  Level Fort Worth Center
10:15AM 32.6533 -96.5844 177° South 405 466 36,000  Level Fort Worth Center
10:16AM 32.5364 -96.5781 177° South 417 480 36,000  Level Fort Worth Center
10:17AM 32.4150 -96.5694 177° South 430 495 36,000  Level Fort Worth Center
10:18AM 32.3086 -96.5631 177° South 430 495 36,000  Level Fort Worth Center
10:19AM 32.1917 -96.5567 177° South 425 489 36,000  Level Fort Worth Center
10:20AM 32.0747 -96.5503 177° South 425 489 36,000  Level Fort Worth Center
10:21AM 31.9578 -96.5417 176° South 425 489 36,000  Level Fort Worth Center
10:22AM 31.8386 -96.5356 178° South 425 489 36,000 -360 Level Fort Worth Center
10:24AM 31.6097 -96.5203 177° South 430 495 35,100 -960 Descending Houston Center
10:25AM 31.4928 -96.5033 173° South 422 486 33,200 -1,920 Descending Houston Center
10:26AM 31.3806 -96.4456 156° South 434 499 31,200 -1,980 Descending Houston Center
10:27AM 31.2725 -96.3772 152° Southeast 437 503 29,200 -2,160 Descending Houston Center
10:28AM 31.1403 -96.2936 152° Southeast 454 522 26,800 -2,160 Descending Houston Center
10:29AM 31.0258 -96.2203 151° Southeast 462 532 24,800 -1,980 Descending Houston Center
10:30AM 30.9156 -96.1514 152° Southeast 446 513 22,800 -1,980 Descending Houston Center
10:31AM 30.8086 -96.0856 152° Southeast 432 497 20,800 -2,040 Descending Houston Center
10:32AM 30.6933 -96.0128 151° Southeast 420 483 18,600 -2,160 Descending Houston Center
10:33AM 30.6172 -95.9653 152° Southeast 403 464 16,900 -1,860 Descending Houston Center
10:33AM 30.6136 -95.9625 146° Southeast 406 467 16,700 -2,820 Descending Houston Center
10:34AM 30.4992 -95.8911 152° Southeast 392 451 13,300 -2,400 Descending Houston Center
10:35AM 30.4164 -95.8261 146° Southeast 366 421 12,000 -720 Descending Houston Center
10:36AM 30.3517 -95.7586 138° Southeast 333 383 12,000 -720 Level Houston Center
10:37AM 30.2731 -95.6758 138° Southeast 339 390 10,600 -1,260 Descending Houston Center
10:38AM 30.2128 -95.6128 138° Southeast 314 361 9,500 -1,080 Descending Houston Center
10:40AM 30.1317 -95.5283 138° Southeast 321 369 8,300 -1,200 Descending Houston Center
10:40AM 30.1061 -95.4542 112° Southeast 284 327 7,000 -1,140 Descending Houston Center
10:42AM 30.1050 -95.3503 91° East 274 315 6,000 -480 Descending Houston Center
10:43AM 30.1042 -95.2708 91° East 261 300 6,100 -900 Climbing Houston Center
10:44AM 30.1050 -95.1886 89° East 232 267 4,200 -1,500 Descending Houston Center
10:45AM 30.0458 -95.1619 159° South 255 293 3,000 -960 Descending Houston Center
10:46AM 30.0075 -95.2028 223° Southwest 199 229 2,400 -660 Descending Houston Center